sensor_id;sensor_type;location;lat;lon;timestamp;P1;durP1;ratioP1;P2;durP2;ratioP2
65387;SDS011;51992;53.528;49.474;2022-11-11T00:01:48;18.65;;;13.30;;
65387;SDS011;51992;53.528;49.474;2022-11-11T00:04:14;18.88;;;14.80;;
65387;SDS011;51992;53.528;49.474;2022-11-11T00:06:40;21.70;;;16.08;;
65387;SDS011;51992;53.528;49.474;2022-11-11T00:09:05;20.67;;;15.32;;
65387;SDS011;51992;53.528;49.474;2022-11-11T00:11:31;18.02;;;13.75;;
65387;SDS011;51992;53.528;49.474;2022-11-11T00:13:57;18.35;;;12.75;;
65387;SDS011;51992;53.528;49.474;2022-11-11T00:16:22;20.15;;;13.45;;
65387;SDS011;51992;53.528;49.474;2022-11-11T00:18:48;16.83;;;12.10;;
65387;SDS011;51992;53.528;49.474;2022-11-11T00:21:32;20.42;;;13.82;;
65387;SDS011;51992;53.528;49.474;2022-11-11T00:24:21;18.17;;;13.70;;
65387;SDS011;51992;53.528;49.474;2022-11-11T00:27:06;16.85;;;12.80;;
65387;SDS011;51992;53.528;49.474;2022-11-11T00:29:33;17.92;;;13.52;;
65387;SDS011;51992;53.528;49.474;2022-11-11T00:31:58;17.35;;;12.50;;
65387;SDS011;51992;53.528;49.474;2022-11-11T00:34:43;17.98;;;12.25;;
65387;SDS011;51992;53.528;49.474;2022-11-11T00:37:28;17.67;;;13.27;;
65387;SDS011;51992;53.528;49.474;2022-11-11T00:39:54;19.20;;;14.38;;
65387;SDS011;51992;53.528;49.474;2022-11-11T00:42:20;18.70;;;14.02;;
65387;SDS011;51992;53.528;49.474;2022-11-11T00:44:45;19.40;;;14.45;;
65387;SDS011;51992;53.528;49.474;2022-11-11T00:47:11;18.65;;;13.40;;
65387;SDS011;51992;53.528;49.474;2022-11-11T00:50:16;17.60;;;13.77;;
65387;SDS011;51992;53.528;49.474;2022-11-11T00:53:02;16.20;;;11.80;;
65387;SDS011;51992;53.528;49.474;2022-11-11T00:55:28;14.93;;;11.43;;
65387;SDS011;51992;53.528;49.474;2022-11-11T00:57:54;16.63;;;12.70;;
65387;SDS011;51992;53.528;49.474;2022-11-11T01:00:20;18.52;;;12.73;;
65387;SDS011;51992;53.528;49.474;2022-11-11T01:02:45;18.00;;;13.00;;
65387;SDS011;51992;53.528;49.474;2022-11-11T01:05:11;18.05;;;11.73;;
65387;SDS011;51992;53.528;49.474;2022-11-11T01:07:37;15.63;;;12.43;;
65387;SDS011;51992;53.528;49.474;2022-11-11T01:10:03;18.88;;;13.52;;
65387;SDS011;51992;53.528;49.474;2022-11-11T01:12:28;17.25;;;13.13;;
65387;SDS011;51992;53.528;49.474;2022-11-11T01:14:54;16.08;;;13.45;;
65387;SDS011;51992;53.528;49.474;2022-11-11T01:17:20;18.10;;;13.63;;
65387;SDS011;51992;53.528;49.474;2022-11-11T01:19:45;21.75;;;14.07;;
65387;SDS011;51992;53.528;49.474;2022-11-11T01:22:11;16.02;;;12.95;;
65387;SDS011;51992;53.528;49.474;2022-11-11T01:24:37;15.20;;;12.80;;
65387;SDS011;51992;53.528;49.474;2022-11-11T01:27:03;16.85;;;11.93;;
65387;SDS011;51992;53.528;49.474;2022-11-11T01:29:28;14.75;;;10.82;;
65387;SDS011;51992;53.528;49.474;2022-11-11T01:31:54;14.45;;;10.52;;
65387;SDS011;51992;53.528;49.474;2022-11-11T01:34:20;14.75;;;10.00;;
65387;SDS011;51992;53.528;49.474;2022-11-11T01:36:46;13.38;;;10.45;;
65387;SDS011;51992;53.528;49.474;2022-11-11T01:39:11;16.23;;;11.30;;
65387;SDS011;51992;53.528;49.474;2022-11-11T01:41:37;13.57;;;10.50;;
65387;SDS011;51992;53.528;49.474;2022-11-11T01:46:36;12.77;;;9.65;;
65387;SDS011;51992;53.528;49.474;2022-11-11T01:51:52;14.45;;;10.82;;
65387;SDS011;51992;53.528;49.474;2022-11-11T01:54:21;13.25;;;10.23;;
65387;SDS011;51992;53.528;49.474;2022-11-11T01:56:49;11.73;;;10.05;;
65387;SDS011;51992;53.528;49.474;2022-11-11T01:59:16;12.32;;;9.82;;
65387;SDS011;51992;53.528;49.474;2022-11-11T02:01:42;11.73;;;9.77;;
65387;SDS011;51992;53.528;49.474;2022-11-11T02:04:08;14.25;;;9.48;;
65387;SDS011;51992;53.528;49.474;2022-11-11T02:06:54;14.20;;;11.30;;
65387;SDS011;51992;53.528;49.474;2022-11-11T02:09:20;13.50;;;9.10;;
65387;SDS011;51992;53.528;49.474;2022-11-11T02:11:47;12.38;;;9.52;;
65387;SDS011;51992;53.528;49.474;2022-11-11T02:14:33;12.80;;;9.73;;
65387;SDS011;51992;53.528;49.474;2022-11-11T02:17:07;11.13;;;8.98;;
65387;SDS011;51992;53.528;49.474;2022-11-11T02:19:41;11.43;;;9.52;;
65387;SDS011;51992;53.528;49.474;2022-11-11T02:22:10;11.95;;;9.02;;
65387;SDS011;51992;53.528;49.474;2022-11-11T02:24:37;15.52;;;11.02;;
65387;SDS011;51992;53.528;49.474;2022-11-11T02:27:03;10.73;;;9.18;;
65387;SDS011;51992;53.528;49.474;2022-11-11T02:29:29;12.07;;;9.20;;
65387;SDS011;51992;53.528;49.474;2022-11-11T02:31:55;13.15;;;10.50;;
65387;SDS011;51992;53.528;49.474;2022-11-11T02:34:27;11.48;;;9.48;;
65387;SDS011;51992;53.528;49.474;2022-11-11T02:39:18;9.75;;;8.32;;
65387;SDS011;51992;53.528;49.474;2022-11-11T02:41:47;9.10;;;7.97;;
65387;SDS011;51992;53.528;49.474;2022-11-11T02:44:22;10.43;;;8.07;;
65387;SDS011;51992;53.528;49.474;2022-11-11T02:46:48;10.20;;;8.43;;
65387;SDS011;51992;53.528;49.474;2022-11-11T02:49:14;10.38;;;7.88;;
65387;SDS011;51992;53.528;49.474;2022-11-11T02:51:39;12.95;;;8.95;;
65387;SDS011;51992;53.528;49.474;2022-11-11T02:54:05;10.43;;;9.23;;
65387;SDS011;51992;53.528;49.474;2022-11-11T02:56:31;10.43;;;8.40;;
65387;SDS011;51992;53.528;49.474;2022-11-11T02:59:15;8.98;;;8.07;;
65387;SDS011;51992;53.528;49.474;2022-11-11T03:01:41;9.57;;;8.15;;
65387;SDS011;51992;53.528;49.474;2022-11-11T03:04:07;13.35;;;11.88;;
65387;SDS011;51992;53.528;49.474;2022-11-11T03:06:32;10.43;;;8.95;;
65387;SDS011;51992;53.528;49.474;2022-11-11T03:08:58;10.05;;;8.07;;
65387;SDS011;51992;53.528;49.474;2022-11-11T03:11:24;9.50;;;7.70;;
65387;SDS011;51992;53.528;49.474;2022-11-11T03:13:56;10.20;;;8.07;;
65387;SDS011;51992;53.528;49.474;2022-11-11T03:16:22;10.88;;;7.78;;
65387;SDS011;51992;53.528;49.474;2022-11-11T03:19:09;10.30;;;7.82;;
65387;SDS011;51992;53.528;49.474;2022-11-11T03:21:34;10.85;;;7.78;;
65387;SDS011;51992;53.528;49.474;2022-11-11T03:24:00;10.68;;;8.25;;
65387;SDS011;51992;53.528;49.474;2022-11-11T03:26:26;11.25;;;8.73;;
65387;SDS011;51992;53.528;49.474;2022-11-11T03:28:52;9.85;;;7.63;;
65387;SDS011;51992;53.528;49.474;2022-11-11T03:31:17;9.70;;;7.55;;
65387;SDS011;51992;53.528;49.474;2022-11-11T03:33:43;12.30;;;9.20;;
65387;SDS011;51992;53.528;49.474;2022-11-11T03:36:09;10.63;;;8.48;;
65387;SDS011;51992;53.528;49.474;2022-11-11T03:38:35;12.88;;;8.77;;
65387;SDS011;51992;53.528;49.474;2022-11-11T03:41:00;9.18;;;7.90;;
65387;SDS011;51992;53.528;49.474;2022-11-11T03:43:27;9.23;;;8.05;;
65387;SDS011;51992;53.528;49.474;2022-11-11T03:45:57;8.77;;;7.72;;
65387;SDS011;51992;53.528;49.474;2022-11-11T03:48:23;9.27;;;7.70;;
65387;SDS011;51992;53.528;49.474;2022-11-11T03:50:49;8.23;;;7.35;;
65387;SDS011;51992;53.528;49.474;2022-11-11T03:53:15;9.75;;;7.82;;
65387;SDS011;51992;53.528;49.474;2022-11-11T03:55:42;10.95;;;7.90;;
65387;SDS011;51992;53.528;49.474;2022-11-11T03:58:07;9.50;;;7.90;;
65387;SDS011;51992;53.528;49.474;2022-11-11T04:00:33;12.15;;;8.25;;
65387;SDS011;51992;53.528;49.474;2022-11-11T04:03:00;12.18;;;9.70;;
65387;SDS011;51992;53.528;49.474;2022-11-11T04:05:44;8.98;;;7.18;;
65387;SDS011;51992;53.528;49.474;2022-11-11T04:08:45;10.53;;;9.03;;
65387;SDS011;51992;53.528;49.474;2022-11-11T04:11:31;11.02;;;7.82;;
65387;SDS011;51992;53.528;49.474;2022-11-11T04:14:02;13.07;;;8.25;;
65387;SDS011;51992;53.528;49.474;2022-11-11T04:16:46;11.07;;;8.82;;
65387;SDS011;51992;53.528;49.474;2022-11-11T04:19:12;15.13;;;10.55;;
65387;SDS011;51992;53.528;49.474;2022-11-11T04:21:56;12.30;;;7.72;;
65387;SDS011;51992;53.528;49.474;2022-11-11T04:24:22;9.80;;;8.57;;
65387;SDS011;51992;53.528;49.474;2022-11-11T04:27:07;13.15;;;10.38;;
65387;SDS011;51992;53.528;49.474;2022-11-11T04:29:33;12.63;;;10.48;;
65387;SDS011;51992;53.528;49.474;2022-11-11T04:32:00;10.13;;;7.63;;
65387;SDS011;51992;53.528;49.474;2022-11-11T04:34:46;10.85;;;7.80;;
65387;SDS011;51992;53.528;49.474;2022-11-11T04:37:12;10.93;;;8.35;;
65387;SDS011;51992;53.528;49.474;2022-11-11T04:39:38;10.50;;;8.05;;
65387;SDS011;51992;53.528;49.474;2022-11-11T04:42:23;9.32;;;7.38;;
65387;SDS011;51992;53.528;49.474;2022-11-11T04:44:48;9.55;;;7.88;;
65387;SDS011;51992;53.528;49.474;2022-11-11T04:47:33;9.00;;;7.28;;
65387;SDS011;51992;53.528;49.474;2022-11-11T04:49:59;8.57;;;7.78;;
65387;SDS011;51992;53.528;49.474;2022-11-11T04:52:24;10.23;;;8.35;;
65387;SDS011;51992;53.528;49.474;2022-11-11T04:54:57;11.10;;;6.60;;
65387;SDS011;51992;53.528;49.474;2022-11-11T04:58:01;13.18;;;8.00;;
65387;SDS011;51992;53.528;49.474;2022-11-11T05:00:28;12.82;;;7.10;;
65387;SDS011;51992;53.528;49.474;2022-11-11T05:02:54;11.55;;;7.47;;
65387;SDS011;51992;53.528;49.474;2022-11-11T05:05:38;8.90;;;6.63;;
65387;SDS011;51992;53.528;49.474;2022-11-11T05:08:23;9.55;;;7.15;;
65387;SDS011;51992;53.528;49.474;2022-11-11T05:11:07;10.85;;;7.90;;
65387;SDS011;51992;53.528;49.474;2022-11-11T05:13:33;17.08;;;10.40;;
65387;SDS011;51992;53.528;49.474;2022-11-11T05:16:21;15.02;;;9.60;;
65387;SDS011;51992;53.528;49.474;2022-11-11T05:19:08;10.18;;;7.68;;
65387;SDS011;51992;53.528;49.474;2022-11-11T05:21:53;8.85;;;6.45;;
65387;SDS011;51992;53.528;49.474;2022-11-11T05:24:20;8.63;;;6.72;;
65387;SDS011;51992;53.528;49.474;2022-11-11T05:27:04;14.05;;;6.20;;
65387;SDS011;51992;53.528;49.474;2022-11-11T05:29:30;9.30;;;6.82;;
65387;SDS011;51992;53.528;49.474;2022-11-11T05:31:56;11.07;;;7.95;;
65387;SDS011;51992;53.528;49.474;2022-11-11T05:34:22;11.18;;;7.65;;
65387;SDS011;51992;53.528;49.474;2022-11-11T05:36:47;9.70;;;7.32;;
65387;SDS011;51992;53.528;49.474;2022-11-11T05:39:13;9.73;;;5.80;;
65387;SDS011;51992;53.528;49.474;2022-11-11T05:41:39;9.43;;;5.80;;
65387;SDS011;51992;53.528;49.474;2022-11-11T05:44:05;10.23;;;6.82;;
65387;SDS011;51992;53.528;49.474;2022-11-11T05:46:30;9.90;;;6.75;;
65387;SDS011;51992;53.528;49.474;2022-11-11T05:48:56;9.55;;;7.13;;
65387;SDS011;51992;53.528;49.474;2022-11-11T05:51:41;12.30;;;6.82;;
65387;SDS011;51992;53.528;49.474;2022-11-11T05:54:07;11.10;;;6.97;;
65387;SDS011;51992;53.528;49.474;2022-11-11T05:56:32;8.75;;;6.63;;
65387;SDS011;51992;53.528;49.474;2022-11-11T05:58:58;8.20;;;6.35;;
65387;SDS011;51992;53.528;49.474;2022-11-11T06:01:24;11.02;;;7.30;;
65387;SDS011;51992;53.528;49.474;2022-11-11T06:03:50;6.68;;;5.97;;
65387;SDS011;51992;53.528;49.474;2022-11-11T06:06:16;8.68;;;6.43;;
65387;SDS011;51992;53.528;49.474;2022-11-11T06:08:41;9.05;;;6.25;;
65387;SDS011;51992;53.528;49.474;2022-11-11T06:11:07;7.63;;;5.22;;
65387;SDS011;51992;53.528;49.474;2022-11-11T06:13:33;8.85;;;6.95;;
65387;SDS011;51992;53.528;49.474;2022-11-11T06:15:59;8.10;;;6.20;;
65387;SDS011;51992;53.528;49.474;2022-11-11T06:18:25;7.80;;;5.95;;
65387;SDS011;51992;53.528;49.474;2022-11-11T06:20:51;10.65;;;6.85;;
65387;SDS011;51992;53.528;49.474;2022-11-11T06:23:17;12.50;;;7.90;;
65387;SDS011;51992;53.528;49.474;2022-11-11T06:25:43;9.80;;;6.70;;
65387;SDS011;51992;53.528;49.474;2022-11-11T06:28:27;7.25;;;5.53;;
65387;SDS011;51992;53.528;49.474;2022-11-11T06:30:53;5.85;;;5.15;;
65387;SDS011;51992;53.528;49.474;2022-11-11T06:33:19;8.90;;;6.22;;
65387;SDS011;51992;53.528;49.474;2022-11-11T06:35:46;8.77;;;5.80;;
65387;SDS011;51992;53.528;49.474;2022-11-11T06:38:12;7.88;;;5.70;;
65387;SDS011;51992;53.528;49.474;2022-11-11T06:40:38;9.13;;;6.18;;
65387;SDS011;51992;53.528;49.474;2022-11-11T06:43:04;8.68;;;5.85;;
65387;SDS011;51992;53.528;49.474;2022-11-11T06:45:30;9.10;;;5.38;;
65387;SDS011;51992;53.528;49.474;2022-11-11T06:47:57;8.63;;;6.20;;
65387;SDS011;51992;53.528;49.474;2022-11-11T06:50:23;8.43;;;6.10;;
65387;SDS011;51992;53.528;49.474;2022-11-11T06:52:49;11.90;;;7.38;;
65387;SDS011;51992;53.528;49.474;2022-11-11T06:55:15;12.90;;;7.63;;
65387;SDS011;51992;53.528;49.474;2022-11-11T06:57:40;8.73;;;6.95;;
65387;SDS011;51992;53.528;49.474;2022-11-11T07:00:06;11.57;;;5.50;;
65387;SDS011;51992;53.528;49.474;2022-11-11T07:02:32;13.15;;;6.88;;
65387;SDS011;51992;53.528;49.474;2022-11-11T07:04:58;8.27;;;5.47;;
65387;SDS011;51992;53.528;49.474;2022-11-11T07:07:25;11.43;;;6.57;;
65387;SDS011;51992;53.528;49.474;2022-11-11T07:09:50;12.57;;;6.30;;
65387;SDS011;51992;53.528;49.474;2022-11-11T07:12:16;14.27;;;7.57;;
65387;SDS011;51992;53.528;49.474;2022-11-11T07:14:42;10.15;;;6.40;;
65387;SDS011;51992;53.528;49.474;2022-11-11T07:17:08;15.07;;;7.13;;
65387;SDS011;51992;53.528;49.474;2022-11-11T07:19:33;13.32;;;6.20;;
65387;SDS011;51992;53.528;49.474;2022-11-11T07:21:59;13.25;;;7.28;;
65387;SDS011;51992;53.528;49.474;2022-11-11T07:24:25;9.52;;;6.55;;
65387;SDS011;51992;53.528;49.474;2022-11-11T07:26:50;10.95;;;7.97;;
65387;SDS011;51992;53.528;49.474;2022-11-11T07:29:16;9.25;;;6.53;;
65387;SDS011;51992;53.528;49.474;2022-11-11T07:31:42;13.63;;;7.20;;
65387;SDS011;51992;53.528;49.474;2022-11-11T07:34:07;13.23;;;7.97;;
65387;SDS011;51992;53.528;49.474;2022-11-11T07:36:33;8.07;;;6.07;;
65387;SDS011;51992;53.528;49.474;2022-11-11T07:38:59;11.82;;;7.70;;
65387;SDS011;51992;53.528;49.474;2022-11-11T07:41:25;12.43;;;6.50;;
65387;SDS011;51992;53.528;49.474;2022-11-11T07:43:50;8.20;;;5.65;;
65387;SDS011;51992;53.528;49.474;2022-11-11T07:46:17;9.95;;;6.30;;
65387;SDS011;51992;53.528;49.474;2022-11-11T07:48:43;23.88;;;15.07;;
65387;SDS011;51992;53.528;49.474;2022-11-11T07:51:09;70.28;;;45.22;;
65387;SDS011;51992;53.528;49.474;2022-11-11T07:53:34;34.03;;;23.33;;
65387;SDS011;51992;53.528;49.474;2022-11-11T07:56:00;8.70;;;6.68;;
65387;SDS011;51992;53.528;49.474;2022-11-11T07:58:26;11.40;;;6.35;;
65387;SDS011;51992;53.528;49.474;2022-11-11T08:00:51;10.18;;;6.40;;
65387;SDS011;51992;53.528;49.474;2022-11-11T08:03:17;13.30;;;6.93;;
65387;SDS011;51992;53.528;49.474;2022-11-11T08:05:43;8.50;;;6.00;;
65387;SDS011;51992;53.528;49.474;2022-11-11T08:08:09;12.27;;;6.50;;
65387;SDS011;51992;53.528;49.474;2022-11-11T08:10:35;8.18;;;6.35;;
65387;SDS011;51992;53.528;49.474;2022-11-11T08:13:01;11.82;;;6.50;;
65387;SDS011;51992;53.528;49.474;2022-11-11T08:15:46;7.82;;;6.20;;
65387;SDS011;51992;53.528;49.474;2022-11-11T08:18:11;13.48;;;6.32;;
65387;SDS011;51992;53.528;49.474;2022-11-11T08:20:37;11.07;;;7.32;;
65387;SDS011;51992;53.528;49.474;2022-11-11T08:23:03;9.55;;;6.25;;
65387;SDS011;51992;53.528;49.474;2022-11-11T08:25:29;11.32;;;6.40;;
65387;SDS011;51992;53.528;49.474;2022-11-11T08:27:59;8.57;;;6.00;;
65387;SDS011;51992;53.528;49.474;2022-11-11T08:30:25;11.95;;;6.68;;
65387;SDS011;51992;53.528;49.474;2022-11-11T08:32:57;9.07;;;6.22;;
65387;SDS011;51992;53.528;49.474;2022-11-11T08:35:23;10.20;;;6.18;;
65387;SDS011;51992;53.528;49.474;2022-11-11T08:37:48;10.18;;;6.75;;
65387;SDS011;51992;53.528;49.474;2022-11-11T08:40:15;8.80;;;6.07;;
65387;SDS011;51992;53.528;49.474;2022-11-11T08:42:40;11.43;;;7.07;;
65387;SDS011;51992;53.528;49.474;2022-11-11T08:45:07;8.27;;;6.13;;
65387;SDS011;51992;53.528;49.474;2022-11-11T08:47:34;10.60;;;6.55;;
65387;SDS011;51992;53.528;49.474;2022-11-11T08:50:00;7.53;;;6.15;;
65387;SDS011;51992;53.528;49.474;2022-11-11T08:52:26;11.85;;;6.13;;
65387;SDS011;51992;53.528;49.474;2022-11-11T08:54:51;8.57;;;6.85;;
65387;SDS011;51992;53.528;49.474;2022-11-11T08:57:17;10.35;;;6.97;;
65387;SDS011;51992;53.528;49.474;2022-11-11T08:59:43;8.15;;;5.93;;
65387;SDS011;51992;53.528;49.474;2022-11-11T09:02:12;11.35;;;6.53;;
65387;SDS011;51992;53.528;49.474;2022-11-11T09:04:38;11.10;;;7.10;;
65387;SDS011;51992;53.528;49.474;2022-11-11T09:07:04;12.35;;;7.30;;
65387;SDS011;51992;53.528;49.474;2022-11-11T09:09:30;9.73;;;7.38;;
65387;SDS011;51992;53.528;49.474;2022-11-11T09:11:56;12.88;;;7.53;;
65387;SDS011;51992;53.528;49.474;2022-11-11T09:14:21;11.75;;;7.70;;
65387;SDS011;51992;53.528;49.474;2022-11-11T09:16:48;12.30;;;7.53;;
65387;SDS011;51992;53.528;49.474;2022-11-11T09:19:14;10.52;;;7.30;;
65387;SDS011;51992;53.528;49.474;2022-11-11T09:21:39;9.88;;;7.60;;
65387;SDS011;51992;53.528;49.474;2022-11-11T09:24:05;12.88;;;7.53;;
65387;SDS011;51992;53.528;49.474;2022-11-11T09:26:31;11.30;;;6.82;;
65387;SDS011;51992;53.528;49.474;2022-11-11T09:28:56;10.35;;;6.82;;
65387;SDS011;51992;53.528;49.474;2022-11-11T09:31:22;12.07;;;6.43;;
65387;SDS011;51992;53.528;49.474;2022-11-11T09:33:51;10.45;;;6.90;;
65387;SDS011;51992;53.528;49.474;2022-11-11T09:36:17;10.82;;;6.90;;
65387;SDS011;51992;53.528;49.474;2022-11-11T09:38:42;11.10;;;6.28;;
65387;SDS011;51992;53.528;49.474;2022-11-11T09:43:50;11.05;;;6.70;;
65387;SDS011;51992;53.528;49.474;2022-11-11T09:51:16;11.27;;;6.47;;
65387;SDS011;51992;53.528;49.474;2022-11-11T09:53:44;9.57;;;6.03;;
65387;SDS011;51992;53.528;49.474;2022-11-11T09:56:13;9.70;;;5.47;;
65387;SDS011;51992;53.528;49.474;2022-11-11T09:58:45;10.18;;;5.82;;
65387;SDS011;51992;53.528;49.474;2022-11-11T10:01:12;7.57;;;5.30;;
65387;SDS011;51992;53.528;49.474;2022-11-11T10:03:40;7.75;;;6.32;;
65387;SDS011;51992;53.528;49.474;2022-11-11T10:06:12;8.05;;;5.25;;
65387;SDS011;51992;53.528;49.474;2022-11-11T10:08:47;8.23;;;5.63;;
65387;SDS011;51992;53.528;49.474;2022-11-11T10:11:26;7.43;;;5.72;;
65387;SDS011;51992;53.528;49.474;2022-11-11T10:13:53;5.45;;;4.85;;
65387;SDS011;51992;53.528;49.474;2022-11-11T10:16:28;6.20;;;5.18;;
65387;SDS011;51992;53.528;49.474;2022-11-11T10:19:03;9.88;;;5.80;;
65387;SDS011;51992;53.528;49.474;2022-11-11T10:21:49;7.32;;;5.28;;
65387;SDS011;51992;53.528;49.474;2022-11-11T10:24:16;15.20;;;6.10;;
65387;SDS011;51992;53.528;49.474;2022-11-11T10:26:46;8.77;;;5.43;;
65387;SDS011;51992;53.528;49.474;2022-11-11T10:29:13;7.60;;;5.82;;
65387;SDS011;51992;53.528;49.474;2022-11-11T10:31:40;12.10;;;5.90;;
65387;SDS011;51992;53.528;49.474;2022-11-11T10:34:10;7.10;;;5.65;;
65387;SDS011;51992;53.528;49.474;2022-11-11T10:36:54;21.08;;;15.93;;
65387;SDS011;51992;53.528;49.474;2022-11-11T10:39:26;20.60;;;17.08;;
65387;SDS011;51992;53.528;49.474;2022-11-11T10:41:56;8.73;;;5.93;;
65387;SDS011;51992;53.528;49.474;2022-11-11T10:49:23;9.88;;;5.50;;
65387;SDS011;51992;53.528;49.474;2022-11-11T10:51:51;8.98;;;5.68;;
65387;SDS011;51992;53.528;49.474;2022-11-11T10:54:19;9.60;;;5.90;;
65387;SDS011;51992;53.528;49.474;2022-11-11T10:56:50;8.65;;;5.47;;
65387;SDS011;51992;53.528;49.474;2022-11-11T10:59:21;7.82;;;5.60;;
65387;SDS011;51992;53.528;49.474;2022-11-11T11:01:59;6.53;;;4.55;;
65387;SDS011;51992;53.528;49.474;2022-11-11T11:04:45;6.93;;;5.43;;
65387;SDS011;51992;53.528;49.474;2022-11-11T11:07:14;6.10;;;4.40;;
65387;SDS011;51992;53.528;49.474;2022-11-11T11:10:02;9.30;;;5.63;;
65387;SDS011;51992;53.528;49.474;2022-11-11T11:12:47;9.75;;;5.55;;
65387;SDS011;51992;53.528;49.474;2022-11-11T11:15:16;9.00;;;5.20;;
65387;SDS011;51992;53.528;49.474;2022-11-11T11:18:00;15.05;;;5.80;;
65387;SDS011;51992;53.528;49.474;2022-11-11T11:20:27;7.60;;;5.40;;
65387;SDS011;51992;53.528;49.474;2022-11-11T11:22:53;7.25;;;4.93;;
65387;SDS011;51992;53.528;49.474;2022-11-11T11:25:22;9.15;;;5.22;;
65387;SDS011;51992;53.528;49.474;2022-11-11T11:27:49;5.68;;;4.97;;
65387;SDS011;51992;53.528;49.474;2022-11-11T11:30:18;7.28;;;4.80;;
65387;SDS011;51992;53.528;49.474;2022-11-11T11:32:58;7.38;;;5.63;;
65387;SDS011;51992;53.528;49.474;2022-11-11T11:37:55;8.65;;;5.10;;
65387;SDS011;51992;53.528;49.474;2022-11-11T11:40:21;10.85;;;6.35;;
65387;SDS011;51992;53.528;49.474;2022-11-11T11:42:47;8.02;;;5.55;;
65387;SDS011;51992;53.528;49.474;2022-11-11T11:47:43;7.40;;;5.18;;
65387;SDS011;51992;53.528;49.474;2022-11-11T11:50:22;7.07;;;5.43;;
65387;SDS011;51992;53.528;49.474;2022-11-11T11:52:57;7.60;;;5.18;;
65387;SDS011;51992;53.528;49.474;2022-11-11T11:55:26;9.48;;;5.80;;
65387;SDS011;51992;53.528;49.474;2022-11-11T12:00:28;10.20;;;5.10;;
65387;SDS011;51992;53.528;49.474;2022-11-11T12:15:55;8.02;;;5.05;;
65387;SDS011;51992;53.528;49.474;2022-11-11T12:21:02;6.88;;;5.22;;
65387;SDS011;51992;53.528;49.474;2022-11-11T12:23:33;5.93;;;4.50;;
65387;SDS011;51992;53.528;49.474;2022-11-11T12:28:37;7.47;;;5.45;;
65387;SDS011;51992;53.528;49.474;2022-11-11T12:31:27;4.22;;;2.90;;
65387;SDS011;51992;53.528;49.474;2022-11-11T12:44:31;7.07;;;5.00;;
65387;SDS011;51992;53.528;49.474;2022-11-11T12:49:46;8.60;;;5.38;;
65387;SDS011;51992;53.528;49.474;2022-11-11T13:00:19;10.07;;;5.68;;
65387;SDS011;51992;53.528;49.474;2022-11-11T13:07:59;7.50;;;5.20;;
65387;SDS011;51992;53.528;49.474;2022-11-11T13:10:32;8.57;;;4.53;;
65387;SDS011;51992;53.528;49.474;2022-11-11T13:13:27;8.95;;;5.50;;
65387;SDS011;51992;53.528;49.474;2022-11-11T13:15:47;7.13;;;5.20;;
65387;SDS011;51992;53.528;49.474;2022-11-11T13:18:14;9.98;;;6.00;;
65387;SDS011;51992;53.528;49.474;2022-11-11T13:20:56;7.25;;;5.55;;
65387;SDS011;51992;53.528;49.474;2022-11-11T13:23:23;8.77;;;5.72;;
65387;SDS011;51992;53.528;49.474;2022-11-11T13:25:53;7.38;;;4.53;;
65387;SDS011;51992;53.528;49.474;2022-11-11T13:28:25;8.43;;;5.22;;
65387;SDS011;51992;53.528;49.474;2022-11-11T13:30:59;7.13;;;5.55;;
65387;SDS011;51992;53.528;49.474;2022-11-11T13:34:09;7.88;;;5.60;;
65387;SDS011;51992;53.528;49.474;2022-11-11T13:36:15;7.72;;;5.90;;
65387;SDS011;51992;53.528;49.474;2022-11-11T13:38:45;5.88;;;5.28;;
65387;SDS011;51992;53.528;49.474;2022-11-11T13:41:12;8.10;;;5.38;;
65387;SDS011;51992;53.528;49.474;2022-11-11T13:43:45;12.65;;;6.00;;
65387;SDS011;51992;53.528;49.474;2022-11-11T13:48:49;6.55;;;5.75;;
65387;SDS011;51992;53.528;49.474;2022-11-11T13:53:50;7.80;;;6.35;;
65387;SDS011;51992;53.528;49.474;2022-11-11T13:59:20;8.60;;;7.55;;
65387;SDS011;51992;53.528;49.474;2022-11-11T14:01:47;12.48;;;8.50;;
65387;SDS011;51992;53.528;49.474;2022-11-11T14:04:46;9.68;;;7.28;;
65387;SDS011;51992;53.528;49.474;2022-11-11T14:12:45;10.43;;;7.15;;
65387;SDS011;51992;53.528;49.474;2022-11-11T14:17:59;8.02;;;7.20;;
65387;SDS011;51992;53.528;49.474;2022-11-11T14:25:41;10.48;;;7.20;;
65387;SDS011;51992;53.528;49.474;2022-11-11T14:28:26;10.48;;;7.80;;
65387;SDS011;51992;53.528;49.474;2022-11-11T14:30:53;9.40;;;7.68;;
65387;SDS011;51992;53.528;49.474;2022-11-11T14:57:18;17.05;;;10.93;;
65387;SDS011;51992;53.528;49.474;2022-11-11T14:59:45;14.68;;;11.52;;
65387;SDS011;51992;53.528;49.474;2022-11-11T15:02:20;15.90;;;10.77;;
65387;SDS011;51992;53.528;49.474;2022-11-11T15:04:47;11.20;;;8.13;;
65387;SDS011;51992;53.528;49.474;2022-11-11T15:07:16;13.88;;;10.07;;
65387;SDS011;51992;53.528;49.474;2022-11-11T15:17:41;13.10;;;9.45;;
65387;SDS011;51992;53.528;49.474;2022-11-11T15:30:33;12.05;;;8.80;;
65387;SDS011;51992;53.528;49.474;2022-11-11T15:33:09;12.70;;;8.50;;
65387;SDS011;51992;53.528;49.474;2022-11-11T15:38:05;11.70;;;8.65;;
65387;SDS011;51992;53.528;49.474;2022-11-11T15:40:40;10.20;;;8.32;;
65387;SDS011;51992;53.528;49.474;2022-11-11T15:43:12;12.68;;;8.63;;
65387;SDS011;51992;53.528;49.474;2022-11-11T15:45:39;12.07;;;8.98;;
65387;SDS011;51992;53.528;49.474;2022-11-11T15:48:11;17.30;;;9.80;;
65387;SDS011;51992;53.528;49.474;2022-11-11T15:50:37;13.00;;;8.90;;
65387;SDS011;51992;53.528;49.474;2022-11-11T15:53:03;12.73;;;9.07;;
65387;SDS011;51992;53.528;49.474;2022-11-11T15:55:32;14.40;;;9.63;;
65387;SDS011;51992;53.528;49.474;2022-11-11T15:58:45;11.55;;;8.75;;
65387;SDS011;51992;53.528;49.474;2022-11-11T16:00:45;11.05;;;8.15;;
65387;SDS011;51992;53.528;49.474;2022-11-11T16:03:33;11.63;;;8.20;;
65387;SDS011;51992;53.528;49.474;2022-11-11T16:05:58;13.90;;;10.07;;
65387;SDS011;51992;53.528;49.474;2022-11-11T16:08:24;12.68;;;9.40;;
65387;SDS011;51992;53.528;49.474;2022-11-11T16:10:57;15.55;;;10.63;;
65387;SDS011;51992;53.528;49.474;2022-11-11T16:14:17;13.75;;;9.77;;
65387;SDS011;51992;53.528;49.474;2022-11-11T16:16:20;16.05;;;10.43;;
65387;SDS011;51992;53.528;49.474;2022-11-11T16:19:00;12.15;;;9.05;;
65387;SDS011;51992;53.528;49.474;2022-11-11T16:21:28;12.75;;;10.02;;
65387;SDS011;51992;53.528;49.474;2022-11-11T16:23:54;12.30;;;9.30;;
65387;SDS011;51992;53.528;49.474;2022-11-11T16:26:21;9.77;;;8.77;;
65387;SDS011;51992;53.528;49.474;2022-11-11T16:28:48;8.48;;;7.68;;
65387;SDS011;51992;53.528;49.474;2022-11-11T16:33:54;11.05;;;8.85;;
65387;SDS011;51992;53.528;49.474;2022-11-11T16:36:19;12.18;;;8.35;;
65387;SDS011;51992;53.528;49.474;2022-11-11T16:38:45;10.43;;;7.15;;
65387;SDS011;51992;53.528;49.474;2022-11-11T16:41:27;12.82;;;7.22;;
65387;SDS011;51992;53.528;49.474;2022-11-11T16:43:54;7.93;;;6.22;;
65387;SDS011;51992;53.528;49.474;2022-11-11T16:46:37;11.45;;;7.95;;
65387;SDS011;51992;53.528;49.474;2022-11-11T16:49:45;12.85;;;7.55;;
65387;SDS011;51992;53.528;49.474;2022-11-11T16:51:52;10.55;;;7.60;;
65387;SDS011;51992;53.528;49.474;2022-11-11T16:54:19;10.48;;;8.02;;
65387;SDS011;51992;53.528;49.474;2022-11-11T16:56:47;10.73;;;8.00;;
65387;SDS011;51992;53.528;49.474;2022-11-11T16:59:15;11.52;;;7.60;;
65387;SDS011;51992;53.528;49.474;2022-11-11T17:01:44;9.50;;;7.70;;